.
WxDataArchive / Data Records for 2008-02-10
2008-02-09 February 2008 2008-02-11

Data Records for Sunday, 10 February 2008

Time	Temp	Chill	HIndex	Humid	Dewpt	 Wind 	HiWind	WindDir	Rain 	Barom 
-----	----	-----	------	-----	-----	------	------	-------	-----	----- 
00:00	30.1	30.1	30.1	73	22.5	3	6	270	0.00	29.837 
00:05	30.0	30.0	30.0	73	22.4	3	5	270	0.00	29.834 
00:10	30.0	25.8	30.0	73	22.4	4	10	270	0.00	29.841 
00:15	29.8	25.5	29.8	73	22.2	4	9	270	0.00	29.845 
00:20	29.8	29.8	29.8	71	21.6	3	7	270	0.00	29.847 
00:25	29.8	25.5	29.8	71	21.6	4	9	270	0.00	29.850 
00:30	29.7	29.7	29.7	70	21.1	3	6	270	0.00	29.856 
00:35	29.7	25.4	29.7	70	21.1	4	8	270	0.00	29.856 
00:40	29.7	29.7	29.7	71	21.5	3	9	270	0.00	29.854 
00:45	29.4	25.1	29.4	70	20.8	4	9	270	0.00	29.855 
00:50	29.3	29.3	29.3	70	20.8	3	7	270	0.00	29.858 
00:55	29.0	24.6	29.0	69	20.1	4	9	270	0.00	29.853 
01:00	29.0	29.0	29.0	69	20.1	3	10	270	0.00	29.857 
01:05	28.7	28.7	28.7	70	20.2	2	5	270	0.00	29.856 
01:10	28.7	28.7	28.7	69	19.8	3	6	270	0.00	29.860 
01:15	28.5	28.5	28.5	69	19.6	3	9	270	0.00	29.856 
01:20	28.5	28.5	28.5	69	19.6	3	7	270	0.00	29.859 
01:25	28.5	28.5	28.5	69	19.6	3	7	270	0.00	29.861 
01:30	28.5	28.5	28.5	69	19.6	3	6	270	0.00	29.851 
01:35	28.4	28.4	28.4	69	19.5	2	6	270	0.00	29.848 
01:40	28.2	28.2	28.2	69	19.4	3	7	270	0.00	29.845 
01:45	27.9	27.9	27.9	69	19.1	2	5	248	0.00	29.853 
01:50	27.9	27.9	27.9	69	19.1	3	7	270	0.00	29.857 
01:55	27.8	27.8	27.8	69	19.0	2	5	270	0.00	29.852 
02:00	27.8	27.8	27.8	70	19.3	1	3	248	0.00	29.857 
02:05	27.8	27.8	27.8	69	19.0	3	9	270	0.00	29.857 
02:10	28.1	23.6	28.1	71	19.9	4	12	270	0.00	29.859 
02:15	27.9	21.3	27.9	74	20.7	6	15	270	0.00	29.858 
02:20	27.6	21.9	27.6	74	20.4	5	14	270	0.00	29.872 
02:25	27.2	21.4	27.2	73	19.7	5	14	270	0.00	29.879 
02:30	27.0	22.3	27.0	73	19.5	4	12	270	0.00	29.887 
02:35	26.7	20.9	26.7	73	19.2	5	13	270	0.00	29.881 
02:40	26.6	20.7	26.6	72	18.8	5	13	270	0.00	29.893 
02:45	26.3	21.5	26.3	72	18.5	4	15	270	0.00	29.892 
02:50	26.0	21.1	26.0	71	17.9	4	13	270	0.00	29.890 
02:55	25.8	20.9	25.8	71	17.7	4	11	270	0.00	29.892 
03:00	25.6	20.7	25.6	71	17.5	4	13	270	0.00	29.892 
03:05	25.4	20.5	25.4	70	17.0	4	13	270	0.00	29.889 
03:10	25.3	20.3	25.3	69	16.6	4	11	270	0.00	29.889 
03:15	25.1	25.1	25.1	67	15.7	3	7	270	0.00	29.890 
03:20	25.1	25.1	25.1	69	16.4	3	9	270	0.00	29.891 
03:25	24.8	18.6	24.8	67	15.4	5	13	270	0.00	29.891 
03:30	24.7	19.6	24.7	67	15.3	4	12	270	0.00	29.893 
03:35	24.5	24.5	24.5	66	14.8	3	13	270	0.00	29.889 
03:40	24.2	19.1	24.2	65	14.2	4	9	270	0.00	29.894 
03:45	24.1	24.1	24.1	64	13.7	3	9	270	0.00	29.888 
03:50	23.9	18.7	23.9	64	13.5	4	10	270	0.00	29.896 
03:55	23.9	18.7	23.9	63	13.2	4	14	270	0.00	29.893 
04:00	23.6	17.2	23.6	60	11.8	5	12	270	0.00	29.893 
04:05	23.5	23.5	23.5	59	11.3	3	7	270	0.00	29.887 
04:10	23.5	23.5	23.5	61	12.1	3	10	270	0.00	29.880 
04:15	23.5	18.3	23.5	61	12.1	4	11	270	0.00	29.880 
04:20	23.3	18.0	23.3	62	12.2	4	11	270	0.00	29.885 
04:25	23.2	17.9	23.2	59	11.0	4	18	270	0.00	29.899 
04:30	22.9	16.4	22.9	58	10.4	5	10	270	0.00	29.899 
04:35	22.7	17.3	22.7	59	10.6	4	16	270	0.00	29.897 
04:40	22.4	17.0	22.4	60	10.6	4	11	270	0.00	29.898 
04:45	22.2	22.2	22.2	60	10.5	3	7	270	0.00	29.898 
04:50	22.1	16.6	22.1	60	10.4	4	9	270	0.00	29.905 
04:55	21.6	16.1	21.6	59	9.5	4	9	270	0.00	29.910 
05:00	21.0	14.2	21.0	56	7.8	5	11	270	0.00	29.912 
05:05	20.6	12.7	20.6	56	7.4	6	17	270	0.00	29.910 
05:10	20.6	20.6	20.6	58	8.2	3	7	270	0.00	29.912 
05:15	20.5	14.8	20.5	59	8.5	4	11	270	0.00	29.911 
05:20	20.2	11.3	20.2	59	8.2	7	17	270	0.00	29.914 
05:25	19.9	10.9	19.9	58	7.5	7	16	270	0.00	29.916 
05:30	19.5	12.4	19.5	57	6.8	5	14	270	0.00	29.914 
05:35	19.2	11.0	19.2	54	5.3	6	13	270	0.00	29.914 
05:40	19.2	12.0	19.2	56	6.1	5	15	270	0.00	29.922 
05:45	18.9	11.7	18.9	56	5.8	5	16	270	0.00	29.928 
05:50	18.6	11.3	18.6	55	5.2	5	16	270	0.00	29.929 
05:55	18.3	9.9	18.3	57	5.7	6	19	270	0.00	29.933 
06:00	18.0	10.6	18.0	58	5.7	5	10	270	0.00	29.941 
06:05	17.8	11.7	17.8	59	5.9	4	12	270	0.00	29.940 
06:10	17.5	11.3	17.5	57	4.9	4	12	270	0.00	29.941 
06:15	17.0	7.4	17.0	56	4.0	7	19	270	0.00	29.946 
06:20	16.7	8.0	16.7	55	3.4	6	12	270	0.00	29.950 
06:25	16.4	6.7	16.4	55	3.1	7	15	270	0.00	29.948 
06:30	16.1	8.4	16.1	53	2.0	5	13	270	0.00	29.950 
06:35	15.9	8.2	15.9	50	0.6	5	12	270	0.00	29.954 
06:40	15.6	7.8	15.6	49	-0.1	5	15	270	0.00	29.956 
06:45	15.4	7.6	15.4	45	-2.1	5	15	270	0.00	29.968 
06:50	15.1	6.1	15.1	45	-2.4	6	12	270	0.00	29.969 
06:55	14.8	8.2	14.8	47	-1.7	4	14	270	0.00	29.969 
07:00	14.6	8.0	14.6	48	-1.5	4	12	270	0.00	29.974 
07:05	14.3	5.2	14.3	48	-1.8	6	15	270	0.00	29.981 
07:10	13.8	2.7	13.8	46	-3.1	8	16	270	0.00	29.990 
07:15	13.1	3.7	13.1	45	-4.2	6	14	270	0.00	29.995 
07:20	12.9	6.0	12.9	46	-3.9	4	12	270	0.00	29.996 
07:25	12.8	5.9	12.8	48	-3.1	4	12	270	0.00	29.997 
07:30	12.6	5.7	12.6	50	-2.5	4	12	270	0.00	29.996 
07:35	12.6	5.7	12.6	50	-2.5	4	10	270	0.00	29.998 
07:40	12.8	12.8	12.8	53	-1.1	3	10	270	0.00	30.013 
07:45	12.1	5.1	12.1	52	-2.1	4	12	270	0.00	30.015 
07:50	11.6	3.1	11.6	51	-3.0	5	13	270	0.00	30.017 
07:55	11.2	4.0	11.2	52	-3.0	4	12	270	0.00	30.023 
08:00	11.2	4.0	11.2	54	-2.2	4	12	270	0.00	30.025 
08:05	11.4	2.9	11.4	54	-2.0	5	13	270	0.00	30.033 
08:10	10.5	1.8	10.5	53	-3.2	5	12	270	0.00	30.042 
08:15	9.9	2.5	9.9	54	-3.4	4	11	270	0.00	30.047 
08:20	9.9	9.9	9.9	53	-3.8	3	7	270	0.00	30.049 
08:25	9.9	9.9	9.9	50	-5.0	3	6	270	0.00	30.050 
08:30	9.9	2.5	9.9	57	-2.2	4	12	270	0.00	30.055 
08:35	9.5	9.5	9.5	61	-1.2	3	11	270	0.00	30.059 
08:40	9.7	2.3	9.7	60	-1.4	4	17	270	0.00	30.062 
08:45	9.2	-0.9	9.2	54	-4.0	6	16	270	0.00	30.066 
08:50	9.0	0.1	9.0	52	-5.0	5	13	292	0.00	30.078 
08:55	8.8	-0.2	8.8	48	-6.8	5	10	292	0.00	30.076 
09:00	9.2	1.7	9.2	50	-5.6	4	11	270	0.00	30.074 
09:05	9.3	0.4	9.3	50	-5.5	5	11	270	0.00	30.073 
09:10	9.3	0.4	9.3	52	-4.7	5	11	270	0.00	30.078 
09:15	9.2	-0.9	9.2	57	-2.9	6	16	270	0.00	30.080 
09:20	8.4	-1.9	8.4	62	-1.9	6	17	270	0.00	30.081 
09:25	8.3	-0.8	8.3	56	-4.1	5	13	270	0.00	30.091 
09:30	8.1	-2.2	8.1	55	-4.7	6	13	270	0.00	30.095 
09:35	8.4	0.8	8.4	57	-3.7	4	12	270	0.00	30.094 
09:40	8.1	-1.0	8.1	55	-4.7	5	12	270	0.00	30.102 
09:45	8.1	-1.0	8.1	55	-4.7	5	11	270	0.00	30.110 
09:50	7.6	-2.8	7.6	53	-5.9	6	13	270	0.00	30.112 
09:55	7.7	0.0	7.7	52	-6.2	4	15	315	0.00	30.113 
10:00	7.6	-1.6	7.6	55	-5.2	5	12	270	0.00	30.122 
10:05	7.0	-3.5	7.0	54	-6.1	6	14	270	0.00	30.132 
10:10	7.0	-2.3	7.0	56	-5.3	5	13	270	0.00	30.126 
10:15	6.5	-1.4	6.5	58	-5.1	4	11	270	0.00	30.134 
10:20	7.0	-0.8	7.0	59	-4.3	4	10	270	0.00	30.136 
10:25	6.7	-3.9	6.7	60	-4.2	6	14	270	0.00	30.137 
10:30	6.3	-4.4	6.3	59	-4.9	6	20	270	0.00	30.141 
10:35	6.3	-4.4	6.3	53	-7.1	6	14	270	0.00	30.150 
10:40	6.9	-2.4	6.9	53	-6.6	5	12	270	0.00	30.152 
10:45	6.7	-2.6	6.7	51	-7.5	5	13	270	0.00	30.152 
10:50	6.5	-2.9	6.5	52	-7.3	5	12	270	0.00	30.164 
10:55	6.5	-4.1	6.5	53	-6.9	6	23	270	0.00	30.164 
11:00	6.5	-4.1	6.5	53	-6.9	6	13	270	0.00	30.166 
11:05	6.5	-1.4	6.5	54	-6.6	4	10	270	0.00	30.171 
11:10	6.5	-2.9	6.5	54	-6.6	5	16	270	0.00	30.180 
11:15	6.1	-4.6	6.1	53	-7.3	6	17	270	0.00	30.184 
11:20	6.0	-4.7	6.0	51	-8.2	6	12	270	0.00	30.185 
11:25	6.0	-3.5	6.0	53	-7.4	5	17	270	0.00	30.197 
11:30	6.0	-4.7	6.0	53	-7.4	6	14	270	0.00	30.197 
11:35	6.0	-4.7	6.0	55	-6.7	6	13	270	0.00	30.196 
11:40	6.5	-2.9	6.5	54	-6.6	5	9	270	0.00	30.206 
11:45	6.1	-4.6	6.1	55	-6.6	6	17	270	0.00	30.209 
11:50	6.1	-1.8	6.1	54	-6.9	4	11	270	0.00	30.213 
11:55	6.1	-3.3	6.1	57	-5.8	5	11	270	0.00	30.215 
12:00	5.6	-3.9	5.6	56	-6.7	5	11	270	0.00	30.216 
12:05	5.8	-5.0	5.8	54	-7.2	6	14	270	0.00	30.221 
12:10	5.6	-3.9	5.6	49	-9.4	5	11	270	0.00	30.226 
12:15	5.6	-3.9	5.6	52	-8.2	5	11	270	0.00	30.224 
12:20	5.8	-2.2	5.8	56	-6.5	4	13	270	0.00	30.231 
12:25	6.1	-1.8	6.1	55	-6.6	4	9	270	0.00	30.234 
12:30	5.8	-3.7	5.8	51	-8.4	5	14	270	0.00	30.230 
12:35	6.1	-1.8	6.1	48	-9.3	4	12	270	0.00	30.225 
12:40	6.0	-3.5	6.0	51	-8.2	5	12	270	0.00	30.231 
12:45	6.1	-3.3	6.1	50	-8.5	5	12	270	0.00	30.226 
12:50	5.6	-3.9	5.6	52	-8.2	5	13	270	0.00	30.229 
12:55	6.0	-3.5	6.0	52	-7.8	5	15	270	0.00	30.233 
13:00	6.0	-2.0	6.0	52	-7.8	4	9	270	0.00	30.233 
13:05	6.0	-3.5	6.0	54	-7.0	5	12	270	0.00	30.236 
13:10	5.8	-5.0	5.8	52	-8.0	6	17	270	0.00	30.233 
13:15	6.0	-2.0	6.0	49	-9.0	4	10	270	0.00	30.236 
13:20	6.3	-1.6	6.3	53	-7.1	4	13	270	0.00	30.234 
13:25	6.1	-3.3	6.1	53	-7.3	5	14	270	0.00	30.237 
13:30	6.5	-1.4	6.5	52	-7.3	4	9	270	0.00	30.240 
13:35	6.5	-1.4	6.5	50	-8.1	4	10	270	0.00	30.239 
13:40	6.3	-3.1	6.3	51	-7.9	5	11	270	0.00	30.244 
13:45	6.0	-4.7	6.0	50	-8.6	6	12	270	0.00	30.240 
13:50	6.0	-2.0	6.0	53	-7.4	4	12	270	0.00	30.241 
13:55	6.3	-1.6	6.3	51	-7.9	4	9	270	0.00	30.244 
14:00	6.1	-4.6	6.1	52	-7.7	6	12	270	0.00	30.244 
14:05	6.3	-1.6	6.3	54	-6.7	4	9	270	0.00	30.245 
14:10	6.1	-3.3	6.1	53	-7.3	5	10	270	0.00	30.247 
14:15	6.1	-1.8	6.1	51	-8.1	4	14	292	0.00	30.250 
14:20	5.8	-3.7	5.8	48	-9.6	5	12	270	0.00	30.249 
14:25	6.0	-3.5	6.0	50	-8.6	5	13	270	0.00	30.250 
14:30	6.0	-3.5	6.0	51	-8.2	5	13	270	0.00	30.253 
14:35	6.3	6.3	6.3	51	-7.9	3	11	270	0.00	30.256 
14:40	6.0	6.0	6.0	50	-8.6	3	9	270	0.00	30.257 
14:45	6.3	-1.6	6.3	47	-9.6	4	11	270	0.00	30.257 
14:50	6.0	-3.5	6.0	49	-9.0	5	11	315	0.00	30.260 
14:55	6.3	6.3	6.3	51	-7.9	3	11	270	0.00	30.263 
15:00	6.9	-0.9	6.9	51	-7.4	4	11	270	0.00	30.264 
15:05	7.0	-0.8	7.0	50	-7.7	4	10	270	0.00	30.266 
15:10	6.9	6.9	6.9	46	-9.5	3	9	270	0.00	30.268 
15:15	6.5	-1.4	6.5	46	-9.8	4	10	270	0.00	30.269 
15:20	6.3	-1.6	6.3	46	-10.0	4	7	270	0.00	30.270 
15:25	5.8	-3.7	5.8	49	-9.2	5	11	338	0.00	30.273 
15:30	6.0	-2.0	6.0	52	-7.8	4	9	270	0.00	30.276 
15:35	6.0	-2.0	6.0	56	-6.3	4	9	270	0.00	30.278 
15:40	5.6	-3.9	5.6	62	-4.6	5	11	270	0.00	30.284 
15:45	5.2	5.2	5.2	64	-4.3	3	8	270	0.00	30.285 
15:50	5.2	-2.9	5.2	61	-5.3	4	10	270	0.00	30.287 
15:55	5.4	5.4	5.4	57	-6.5	3	9	270	0.00	30.286 
16:00	5.6	5.6	5.6	55	-7.0	3	8	292	0.00	30.289 
16:05	5.8	5.8	5.8	53	-7.6	2	7	270	0.00	30.295 
16:10	5.8	5.8	5.8	53	-7.6	3	11	270	0.00	30.298 
16:15	5.4	5.4	5.4	60	-5.4	3	9	270	0.00	30.303 
16:20	5.6	5.6	5.6	60	-5.2	3	11	270	0.00	30.305 
16:25	5.8	-2.2	5.8	60	-5.1	4	16	270	0.00	30.312 
16:30	5.8	5.8	5.8	60	-5.1	2	6	270	0.00	30.316 
16:35	6.0	6.0	6.0	56	-6.3	2	14	270	0.00	30.318 
16:40	5.8	5.8	5.8	54	-7.2	3	9	270	0.00	30.320 
16:45	6.0	6.0	6.0	56	-6.3	3	6	270	0.00	30.322 
16:50	5.6	-2.4	5.6	55	-7.0	4	12	270	0.00	30.324 
16:55	5.8	5.8	5.8	56	-6.5	2	6	315	0.00	30.329 
17:00	6.0	6.0	6.0	57	-5.9	1	5	270	0.00	30.333 
17:05	6.1	6.1	6.1	57	-5.8	2	8	270	0.00	30.335 
17:10	6.1	6.1	6.1	55	-6.6	3	9	270	0.00	30.337 
17:15	5.8	-2.2	5.8	54	-7.2	4	9	270	0.00	30.339 
17:20	5.6	5.6	5.6	55	-7.0	3	7	270	0.00	30.340 
17:25	5.8	5.8	5.8	55	-6.8	3	11	270	0.00	30.340 
17:30	5.4	-2.6	5.4	56	-6.8	4	11	270	0.00	30.345 
17:35	5.4	5.4	5.4	58	-6.1	3	6	270	0.00	30.346 
17:40	5.6	5.6	5.6	55	-7.0	3	9	270	0.00	30.345 
17:45	5.2	5.2	5.2	58	-6.3	3	6	270	0.00	30.350 
17:50	5.0	5.0	5.0	61	-5.5	3	6	270	0.00	30.352 
17:55	5.0	5.0	5.0	62	-5.1	2	7	270	0.00	30.353 
18:00	5.2	5.2	5.2	60	-5.6	2	7	270	0.00	30.354 
18:05	5.2	-2.9	5.2	57	-6.7	4	11	270	0.00	30.357 
18:10	5.0	5.0	5.0	56	-7.2	3	7	270	0.00	30.358 
18:15	4.7	4.7	4.7	58	-6.8	3	9	270	0.00	30.361 
18:20	4.7	4.7	4.7	60	-6.1	2	6	270	0.00	30.360 
18:25	4.7	4.7	4.7	60	-6.1	3	7	270	0.00	30.362 
18:30	4.7	-3.5	4.7	53	-8.6	4	11	270	0.00	30.360 
18:35	4.5	4.5	4.5	53	-8.8	3	9	270	0.00	30.366 
18:40	4.5	4.5	4.5	55	-8.1	3	6	270	0.00	30.370 
18:45	4.5	4.5	4.5	57	-7.3	2	9	270	0.00	30.370 
18:50	4.5	4.5	4.5	57	-7.3	3	6	270	0.00	30.370 
18:55	4.5	4.5	4.5	56	-7.7	3	6	270	0.00	30.371 
19:00	4.3	4.3	4.3	54	-8.6	3	9	270	0.00	30.374 
19:05	4.3	4.3	4.3	53	-9.0	2	6	270	0.00	30.378 
19:10	4.3	4.3	4.3	52	-9.4	3	7	270	0.00	30.378 
19:15	4.3	-3.9	4.3	53	-9.0	4	12	270	0.00	30.378 
19:20	4.1	4.1	4.1	55	-8.4	3	9	270	0.00	30.383 
19:25	4.1	4.1	4.1	56	-8.1	3	5	270	0.00	30.385 
19:30	4.1	4.1	4.1	55	-8.4	3	7	270	0.00	30.391 
19:35	4.3	4.3	4.3	54	-8.6	2	5	270	0.00	30.394 
19:40	4.1	4.1	4.1	53	-9.2	3	5	270	0.00	30.394 
19:45	4.1	4.1	4.1	53	-9.2	2	4	270	0.00	30.396 
19:50	4.1	4.1	4.1	54	-8.8	2	4	270	0.00	30.396 
19:55	4.1	4.1	4.1	54	-8.8	2	6	270	0.00	30.400 
20:00	3.9	3.9	3.9	54	-9.0	2	6	270	0.00	30.398 
20:05	3.9	3.9	3.9	54	-9.0	2	6	270	0.00	30.400 
20:10	3.9	3.9	3.9	57	-7.9	2	11	270	0.00	30.404 
20:15	3.7	3.7	3.7	57	-8.1	1	3	248	0.00	30.404 
20:20	3.7	3.7	3.7	56	-8.4	1	5	270	0.00	30.404 
20:25	3.7	3.7	3.7	54	-9.2	2	6	270	0.00	30.404 
20:30	3.7	3.7	3.7	56	-8.4	0	3	270	0.00	30.407 
20:35	3.7	3.7	3.7	57	-8.1	1	6	270	0.00	30.406 
20:40	3.5	3.5	3.5	56	-8.6	1	4	270	0.00	30.406 
20:45	3.4	-5.0	3.4	55	-9.1	4	10	270	0.00	30.406 
20:50	3.4	3.4	3.4	54	-9.5	3	10	270	0.00	30.406 
20:55	3.2	3.2	3.2	53	-10.0	3	5	270	0.00	30.409 
21:00	3.2	3.2	3.2	53	-10.0	3	7	270	0.00	30.410 
21:05	3.2	3.2	3.2	53	-10.0	3	10	270	0.00	30.411 
21:10	3.2	3.2	3.2	53	-10.0	3	10	270	0.00	30.414 
21:15	3.2	3.2	3.2	53	-10.0	2	5	270	0.00	30.415 
21:20	3.2	3.2	3.2	54	-9.7	2	4	270	0.00	30.415 
21:25	3.0	3.0	3.0	54	-9.8	2	5	270	0.00	30.416 
21:30	3.0	3.0	3.0	54	-9.8	2	6	270	0.00	30.417 
21:35	3.0	3.0	3.0	54	-9.8	3	7	270	0.00	30.421 
21:40	3.0	3.0	3.0	55	-9.5	2	7	270	0.00	30.422 
21:45	3.0	3.0	3.0	54	-9.8	2	5	270	0.00	30.425 
21:50	3.0	3.0	3.0	55	-9.5	2	5	270	0.00	30.424 
21:55	2.8	2.8	2.8	55	-9.7	2	6	270	0.00	30.426 
22:00	2.8	2.8	2.8	55	-9.7	2	9	248	0.00	30.426 
22:05	2.8	2.8	2.8	57	-8.9	1	4	270	0.00	30.426 
22:10	2.8	2.8	2.8	58	-8.6	1	6	248	0.00	30.426 
22:15	2.6	2.6	2.6	57	-9.1	2	6	270	0.00	30.424 
22:20	2.6	2.6	2.6	56	-9.5	2	10	270	0.00	30.424 
22:25	2.6	2.6	2.6	56	-9.5	2	5	270	0.00	30.424 
22:30	2.4	2.4	2.4	55	-10.0	2	10	270	0.00	30.424 
22:35	2.4	2.4	2.4	56	-9.7	1	3	270	0.00	30.429 
22:40	2.4	2.4	2.4	56	-9.7	1	5	270	0.00	30.429 
22:45	2.4	2.4	2.4	56	-9.7	2	4	270	0.00	30.425 
22:50	2.4	2.4	2.4	56	-9.7	1	5	270	0.00	30.430 
22:55	2.4	2.4	2.4	56	-9.7	1	5	248	0.00	30.430 
23:00	2.4	2.4	2.4	56	-9.7	1	5	248	0.00	30.425 
23:05	2.4	2.4	2.4	57	-9.3	1	4	248	0.00	30.428 
23:10	2.4	2.4	2.4	57	-9.3	1	3	270	0.00	30.430 
23:15	2.4	2.4	2.4	57	-9.3	1	4	248	0.00	30.430 
23:20	2.4	2.4	2.4	56	-9.7	3	8	248	0.00	30.432 
23:25	2.4	2.4	2.4	57	-9.3	2	7	270	0.00	30.434 
23:30	2.4	2.4	2.4	57	-9.3	1	5	248	0.00	30.434 
23:35	2.4	2.4	2.4	58	-9.0	1	4	248	0.00	30.433 
23:40	2.4	2.4	2.4	57	-9.3	1	3	270	0.00	30.432 
23:45	2.2	2.2	2.2	57	-9.5	3	8	248	0.00	30.432 
23:50	2.2	2.2	2.2	58	-9.1	2	6	248	0.00	30.433 
23:55	2.2	2.2	2.2	58	-9.1	1	6	248	0.00	30.432 

CoCoRaHS
IN-AL-39
A2 Web Hosting
Creative Commons License
GoDaddy
Look for:

loaded 2017-10-19 12:29:06 • last modified 2010-11-18 10:43:29
Privacy PolicyDisclaimer
• wx.awcolley.com is powered by PmWiki v.2002016 •
• all content (unless otherwise noted) © 2017 A W Colley